Time;durP1;ratioP1;P1;durP2;ratioP2;P2;SDS_P1;SDS_P2;PMS_P1;PMS_P2;Temp;Humidity;BMP_temperature;BMP_pressure;BME280_temperature;BME280_humidity;BME280_pressure;Samples;Min_cycle;Max_cycle;Signal;HPM_P1;HPM_P2
2023/05/07 00:01:16;;;;;;;5.47;3.93;;;;;;;;;;5164127;28;20069;-71
2023/05/07 00:03:47;;;;;;;8.07;4.60;;;;;;;;;;5216813;28;20015;-72
2023/05/07 00:06:19;;;;;;;7.87;4.00;;;;;;;;;;5162204;28;20088;-71
2023/05/07 00:08:50;;;;;;;7.33;4.40;;;;;;;;;;5156140;28;20019;-71
2023/05/07 00:11:21;;;;;;;7.70;4.47;;;;;;;;;;5220971;28;20490;-72
2023/05/07 00:13:53;;;;;;;5.60;4.17;;;;;;;;;;5162637;28;20027;-72
2023/05/07 00:16:24;;;;;;;6.63;3.83;;;;;;;;;;5151802;28;20043;-72
2023/05/07 00:18:55;;;;;;;5.77;4.33;;;;;;;;;;5157380;28;20027;-71
2023/05/07 00:21:26;;;;;;;5.73;4.23;;;;;;;;;;5161574;28;20026;-71
2023/05/07 00:23:57;;;;;;;11.43;5.15;;;;;;;;;;5153096;28;20027;-71
2023/05/07 00:26:28;;;;;;;5.00;3.90;;;;;;;;;;5168722;28;20031;-71
2023/05/07 00:29:00;;;;;;;7.77;4.10;;;;;;;;;;5160256;28;20015;-71
2023/05/07 00:31:31;;;;;;;4.60;3.80;;;;;;;;;;5164151;28;20077;-72
2023/05/07 00:34:02;;;;;;;5.13;4.47;;;;;;;;;;5155457;28;20047;-71
2023/05/07 00:36:33;;;;;;;5.73;4.40;;;;;;;;;;5223706;28;20018;-71
2023/05/07 00:39:04;;;;;;;5.57;4.20;;;;;;;;;;5159617;28;20215;-71
2023/05/07 00:41:35;;;;;;;7.57;4.97;;;;;;;;;;5165230;28;20379;-71
2023/05/07 00:44:07;;;;;;;5.10;4.43;;;;;;;;;;5154937;28;20064;-73
2023/05/07 00:46:38;;;;;;;6.30;4.07;;;;;;;;;;5227617;28;20061;-71
2023/05/07 00:49:09;;;;;;;5.80;5.20;;;;;;;;;;5219732;28;20024;-71
2023/05/07 00:51:40;;;;;;;8.57;5.90;;;;;;;;;;5152226;28;20045;-71
2023/05/07 00:54:13;;;;;;;9.17;5.90;;;;;;;;;;5153883;28;20018;-71
2023/05/07 00:56:44;;;;;;;5.93;5.37;;;;;;;;;;5162043;28;20023;-71
2023/05/07 00:59:15;;;;;;;9.73;5.77;;;;;;;;;;5155912;28;20023;-72
2023/05/07 01:01:47;;;;;;;9.33;7.20;;;;;;;;;;5158110;28;20031;-72
2023/05/07 01:04:18;;;;;;;9.93;7.30;;;;;;;;;;5160202;28;20102;-71
2023/05/07 01:06:50;;;;;;;8.82;7.22;;;;;;;;;;5155943;28;20070;-71
2023/05/07 01:09:22;;;;;;;9.57;7.23;;;;;;;;;;5163019;28;20069;-71
2023/05/07 01:11:54;;;;;;;9.23;7.83;;;;;;;;;;5165416;23;20055;-72
2023/05/07 01:14:25;;;;;;;14.27;8.07;;;;;;;;;;5217309;28;20015;-72
2023/05/07 01:16:56;;;;;;;8.93;7.83;;;;;;;;;;5149835;29;20012;-72
2023/05/07 01:19:28;;;;;;;8.53;7.67;;;;;;;;;;5150396;29;20023;-72
2023/05/07 01:22:03;;;;;;;9.23;8.33;;;;;;;;;;5150949;29;20422;-72
2023/05/07 01:24:35;;;;;;;9.00;8.15;;;;;;;;;;5150520;28;20157;-71
2023/05/07 01:27:06;;;;;;;8.37;7.57;;;;;;;;;;5216454;28;20897;-71
2023/05/07 01:29:37;;;;;;;7.77;7.07;;;;;;;;;;5150465;29;20023;-71
2023/05/07 01:32:08;;;;;;;8.70;7.80;;;;;;;;;;5148937;29;20015;-71
2023/05/07 01:34:40;;;;;;;9.73;8.60;;;;;;;;;;5149352;28;20030;-72
2023/05/07 01:37:11;;;;;;;10.30;9.33;;;;;;;;;;5149811;29;20676;-72
2023/05/07 01:39:44;;;;;;;9.43;8.53;;;;;;;;;;5149782;29;20038;-71
2023/05/07 01:42:15;;;;;;;10.37;8.47;;;;;;;;;;5150234;29;20024;-72
2023/05/07 01:44:46;;;;;;;9.03;8.23;;;;;;;;;;5150058;28;20030;-72
2023/05/07 01:47:18;;;;;;;10.77;9.63;;;;;;;;;;5136986;29;20127;-71
2023/05/07 01:49:49;;;;;;;11.03;9.93;;;;;;;;;;5146835;28;20073;-72
2023/05/07 01:52:21;;;;;;;10.20;9.20;;;;;;;;;;5144792;29;20054;-72
2023/05/07 01:54:52;;;;;;;13.40;9.87;;;;;;;;;;5139861;29;20019;-73
2023/05/07 01:57:23;;;;;;;11.37;10.20;;;;;;;;;;5137171;29;20024;-73
2023/05/07 01:59:54;;;;;;;11.80;10.03;;;;;;;;;;5145351;29;20023;-72
2023/05/07 02:02:25;;;;;;;14.23;10.00;;;;;;;;;;5215371;28;20032;-72
2023/05/07 02:04:56;;;;;;;12.30;10.40;;;;;;;;;;5140147;29;20066;-72
2023/05/07 02:07:29;;;;;;;11.37;10.27;;;;;;;;;;5209749;28;20498;-72
2023/05/07 02:10:00;;;;;;;12.47;11.17;;;;;;;;;;5134184;28;20031;-72
2023/05/07 02:12:31;;;;;;;11.50;10.27;;;;;;;;;;5142460;29;20043;-72
2023/05/07 02:15:02;;;;;;;11.87;10.73;;;;;;;;;;5140084;29;20015;-72
2023/05/07 02:17:34;;;;;;;11.53;10.33;;;;;;;;;;5134946;29;20028;-72
2023/05/07 02:20:07;;;;;;;12.53;11.23;;;;;;;;;;5145586;29;20024;-72
2023/05/07 02:22:38;;;;;;;13.00;11.67;;;;;;;;;;5137323;29;20047;-72
2023/05/07 02:25:09;;;;;;;11.17;10.07;;;;;;;;;;5138400;29;20058;-72
2023/05/07 02:27:40;;;;;;;12.20;10.57;;;;;;;;;;5212215;28;20027;-72
2023/05/07 02:30:11;;;;;;;13.03;10.63;;;;;;;;;;5133118;29;20532;-72
2023/05/07 02:32:43;;;;;;;12.27;10.87;;;;;;;;;;5207120;28;20039;-72
2023/05/07 02:35:14;;;;;;;14.73;11.60;;;;;;;;;;5144155;29;20442;-72
2023/05/07 02:37:45;;;;;;;13.67;10.90;;;;;;;;;;5148374;29;20077;-72
2023/05/07 02:40:16;;;;;;;15.83;11.57;;;;;;;;;;5201316;28;20023;-71
2023/05/07 02:42:47;;;;;;;12.53;11.33;;;;;;;;;;5143288;29;20035;-72
2023/05/07 02:45:19;;;;;;;15.87;11.77;;;;;;;;;;5147287;28;20031;-72
2023/05/07 02:47:50;;;;;;;12.27;11.07;;;;;;;;;;5149347;29;20019;-73
2023/05/07 02:50:21;;;;;;;13.73;12.00;;;;;;;;;;5149372;28;20026;-72
2023/05/07 02:52:53;;;;;;;16.97;11.47;;;;;;;;;;5148998;28;20407;-71
2023/05/07 02:55:24;;;;;;;16.13;12.57;;;;;;;;;;5198891;28;20019;-71
2023/05/07 02:57:55;;;;;;;16.07;14.37;;;;;;;;;;5149155;29;20066;-73
2023/05/07 03:00:26;;;;;;;15.33;13.17;;;;;;;;;;5148034;29;20020;-72
2023/05/07 03:02:57;;;;;;;14.53;13.13;;;;;;;;;;5149329;29;20038;-73
2023/05/07 03:05:28;;;;;;;14.80;13.27;;;;;;;;;;5134843;29;20061;-73
2023/05/07 03:08:00;;;;;;;14.83;13.37;;;;;;;;;;5210908;28;20391;-73
2023/05/07 03:10:31;;;;;;;15.80;13.97;;;;;;;;;;5134879;29;20046;-73
2023/05/07 03:13:02;;;;;;;15.87;14.37;;;;;;;;;;5209889;28;20023;-73
2023/05/07 03:15:33;;;;;;;16.27;14.67;;;;;;;;;;5147996;29;20793;-73
2023/05/07 03:18:04;;;;;;;17.43;15.60;;;;;;;;;;5148666;29;20085;-73
2023/05/07 03:20:36;;;;;;;17.27;15.47;;;;;;;;;;5148417;29;20023;-73
2023/05/07 03:23:07;;;;;;;17.50;15.80;;;;;;;;;;5148910;29;20043;-73
2023/05/07 03:25:38;;;;;;;18.57;16.57;;;;;;;;;;5147875;29;20031;-73
2023/05/07 03:28:09;;;;;;;17.90;16.10;;;;;;;;;;5148934;28;20035;-73
2023/05/07 03:30:41;;;;;;;17.73;15.93;;;;;;;;;;5147868;29;20628;-73
2023/05/07 03:33:12;;;;;;;17.00;15.27;;;;;;;;;;5202824;28;20016;-73
2023/05/07 03:35:43;;;;;;;17.97;16.10;;;;;;;;;;5148076;29;20023;-71
2023/05/07 03:38:14;;;;;;;18.80;16.87;;;;;;;;;;5200657;28;20051;-72
2023/05/07 03:40:45;;;;;;;19.40;17.50;;;;;;;;;;5147221;28;20023;-72
2023/05/07 03:43:16;;;;;;;18.43;16.50;;;;;;;;;;5148214;28;20023;-72
2023/05/07 03:45:48;;;;;;;17.53;15.83;;;;;;;;;;5147163;29;20031;-72
2023/05/07 03:48:19;;;;;;;17.50;15.73;;;;;;;;;;5148508;29;20039;-72
2023/05/07 03:50:50;;;;;;;19.27;17.33;;;;;;;;;;5147660;29;20033;-71
2023/05/07 03:53:21;;;;;;;18.63;16.83;;;;;;;;;;5148693;29;20027;-72
2023/05/07 03:55:52;;;;;;;19.80;17.80;;;;;;;;;;5147683;29;20204;-72
2023/05/07 03:58:25;;;;;;;19.43;17.43;;;;;;;;;;5151131;28;20027;-72
2023/05/07 04:00:56;;;;;;;19.63;17.73;;;;;;;;;;5217404;28;20513;-71
2023/05/07 04:03:27;;;;;;;19.93;17.93;;;;;;;;;;5151877;28;20030;-72
2023/05/07 04:05:58;;;;;;;20.27;18.17;;;;;;;;;;5151257;29;20050;-72
2023/05/07 04:08:30;;;;;;;19.13;17.23;;;;;;;;;;5151512;28;20049;-72
2023/05/07 04:11:01;;;;;;;20.97;18.87;;;;;;;;;;5151098;29;20047;-72
2023/05/07 04:13:32;;;;;;;19.30;17.30;;;;;;;;;;5151645;29;20447;-73
2023/05/07 04:16:04;;;;;;;18.43;16.67;;;;;;;;;;5150871;28;20023;-73
2023/05/07 04:18:36;;;;;;;18.00;16.30;;;;;;;;;;5151639;29;20356;-73
2023/05/07 04:21:14;;;;;;;18.37;16.50;;;;;;;;;;5217511;28;20015;-72
2023/05/07 04:23:48;;;;;;;17.50;15.90;;;;;;;;;;5150432;28;20061;-72
2023/05/07 04:26:21;;;;;;;;;;;;;;;;;;5138510;28;20114;-71
2023/05/07 04:28:52;;;;;;;18.53;16.93;;;;;;;;;;5142532;29;19913;-73
2023/05/07 04:31:23;;;;;;;19.97;18.00;;;;;;;;;;5143934;29;20387;-72
2023/05/07 04:33:54;;;;;;;19.30;17.30;;;;;;;;;;5148859;29;20089;-72
2023/05/07 04:36:29;;;;;;;20.00;18.03;;;;;;;;;;5211446;28;20059;-71
2023/05/07 04:39:02;;;;;;;19.13;17.30;;;;;;;;;;5142004;29;20058;-72
2023/05/07 04:41:33;;;;;;;21.03;18.93;;;;;;;;;;5202194;28;20030;-72
2023/05/07 04:44:04;;;;;;;20.37;18.33;;;;;;;;;;5147244;28;20012;-72
2023/05/07 04:46:35;;;;;;;19.73;17.73;;;;;;;;;;5203202;28;20015;-72
2023/05/07 04:49:07;;;;;;;18.73;16.80;;;;;;;;;;5140178;29;20015;-72
2023/05/07 04:51:38;;;;;;;20.37;18.40;;;;;;;;;;5146300;29;20099;-72
2023/05/07 04:54:09;;;;;;;19.93;18.03;;;;;;;;;;5135362;29;20015;-72
2023/05/07 04:56:41;;;;;;;21.53;17.17;;;;;;;;;;5143060;29;20095;-71
2023/05/07 04:59:12;;;;;;;19.37;17.50;;;;;;;;;;5209557;28;20030;-72
2023/05/07 05:01:43;;;;;;;20.77;18.60;;;;;;;;;;5200033;28;20097;-72
2023/05/07 05:04:15;;;;;;;21.33;19.30;;;;;;;;;;5146088;29;20069;-72
2023/05/07 05:06:46;;;;;;;22.47;20.13;;;;;;;;;;5139205;29;20110;-72
2023/05/07 05:09:17;;;;;;;22.23;19.60;;;;;;;;;;5143422;29;20015;-72
2023/05/07 05:11:48;;;;;;;23.87;21.67;;;;;;;;;;5149490;29;20129;-71
2023/05/07 05:14:20;;;;;;;23.73;21.20;;;;;;;;;;5136329;29;20031;-72
2023/05/07 05:16:51;;;;;;;22.57;20.37;;;;;;;;;;5149164;29;20027;-72
2023/05/07 05:19:22;;;;;;;22.63;20.53;;;;;;;;;;5151029;29;20137;-72
2023/05/07 05:21:53;;;;;;;22.60;20.47;;;;;;;;;;5182580;28;20031;-72
2023/05/07 05:24:24;;;;;;;22.93;20.63;;;;;;;;;;5150229;29;20019;-72
2023/05/07 05:26:56;;;;;;;22.40;20.13;;;;;;;;;;5140901;28;20027;-72
2023/05/07 05:29:27;;;;;;;21.30;19.33;;;;;;;;;;5147024;29;20069;-73
2023/05/07 05:31:58;;;;;;;21.37;19.33;;;;;;;;;;5150422;29;20180;-73
2023/05/07 05:34:29;;;;;;;21.00;18.97;;;;;;;;;;5149949;29;20016;-73
2023/05/07 05:37:01;;;;;;;21.27;19.17;;;;;;;;;;5149624;29;20034;-73
2023/05/07 05:39:32;;;;;;;21.93;19.93;;;;;;;;;;5201735;28;20011;-73
2023/05/07 05:42:03;;;;;;;20.10;18.10;;;;;;;;;;5149803;29;20019;-73
2023/05/07 05:44:34;;;;;;;22.23;20.03;;;;;;;;;;5149503;28;20023;-71
2023/05/07 05:47:06;;;;;;;21.20;19.20;;;;;;;;;;5149832;29;20035;-72
2023/05/07 05:49:37;;;;;;;21.50;19.30;;;;;;;;;;5149624;29;20019;-72
2023/05/07 05:52:08;;;;;;;20.77;18.63;;;;;;;;;;5149685;29;20015;-73
2023/05/07 05:54:39;;;;;;;24.00;18.37;;;;;;;;;;5149693;29;20561;-73
2023/05/07 05:57:11;;;;;;;21.40;19.30;;;;;;;;;;5172551;28;20479;-73
2023/05/07 05:59:42;;;;;;;21.80;19.80;;;;;;;;;;5197893;28;20023;-73
2023/05/07 06:02:13;;;;;;;20.93;19.00;;;;;;;;;;5147807;29;20065;-73
2023/05/07 06:04:45;;;;;;;20.93;18.93;;;;;;;;;;5149641;29;20031;-71
2023/05/07 06:07:16;;;;;;;20.53;18.53;;;;;;;;;;5137441;29;20066;-72
2023/05/07 06:09:48;;;;;;;21.70;19.60;;;;;;;;;;5145453;29;20069;-72
2023/05/07 06:12:20;;;;;;;21.47;19.37;;;;;;;;;;5198518;28;20092;-71
2023/05/07 06:14:52;;;;;;;22.47;18.80;;;;;;;;;;5212102;28;20030;-72
2023/05/07 06:17:23;;;;;;;20.30;18.40;;;;;;;;;;5214031;28;20028;-72
2023/05/07 06:19:54;;;;;;;20.60;18.43;;;;;;;;;;5196393;28;20030;-71
2023/05/07 06:22:25;;;;;;;18.80;17.07;;;;;;;;;;5213219;28;20417;-72
2023/05/07 06:24:56;;;;;;;19.37;17.37;;;;;;;;;;5213166;28;20101;-72
2023/05/07 06:27:28;;;;;;;19.60;17.50;;;;;;;;;;5213098;28;20029;-72
2023/05/07 06:29:59;;;;;;;19.60;17.60;;;;;;;;;;5212257;28;20076;-72
2023/05/07 06:32:30;;;;;;;19.87;17.77;;;;;;;;;;5195529;28;20021;-73
2023/05/07 06:35:01;;;;;;;19.37;17.43;;;;;;;;;;5212564;28;20825;-72
2023/05/07 06:37:32;;;;;;;19.50;17.37;;;;;;;;;;5221612;28;20942;-72
2023/05/07 06:40:04;;;;;;;18.93;17.17;;;;;;;;;;5213684;28;20029;-72
2023/05/07 06:42:36;;;;;;;17.83;16.23;;;;;;;;;;5209505;28;20496;-73
2023/05/07 06:45:08;;;;;;;18.20;16.47;;;;;;;;;;5211655;28;20014;-73
2023/05/07 06:47:39;;;;;;;18.20;16.30;;;;;;;;;;5212023;28;20192;-73
2023/05/07 06:50:10;;;;;;;18.33;16.40;;;;;;;;;;5212153;28;20014;-73
2023/05/07 06:52:42;;;;;;;19.57;15.37;;;;;;;;;;5211981;28;20045;-73
2023/05/07 06:55:13;;;;;;;16.87;15.27;;;;;;;;;;5212290;28;20006;-73
2023/05/07 06:57:44;;;;;;;17.40;15.60;;;;;;;;;;5212440;28;20045;-73
2023/05/07 07:00:15;;;;;;;19.93;16.67;;;;;;;;;;5194584;28;20018;-73
2023/05/07 07:02:47;;;;;;;16.17;14.47;;;;;;;;;;5211932;28;20449;-73
2023/05/07 07:05:18;;;;;;;16.20;14.50;;;;;;;;;;5212778;28;20018;-73
2023/05/07 07:07:52;;;;;;;19.47;15.93;;;;;;;;;;5212250;28;20421;-73
2023/05/07 07:10:23;;;;;;;16.10;14.43;;;;;;;;;;5212424;28;20689;-72
2023/05/07 07:12:55;;;;;;;18.67;14.73;;;;;;;;;;5212449;28;20026;-73
2023/05/07 07:15:26;;;;;;;16.70;15.00;;;;;;;;;;5211471;28;20029;-72
2023/05/07 07:17:57;;;;;;;18.20;16.17;;;;;;;;;;5212117;28;20018;-72
2023/05/07 07:20:28;;;;;;;17.17;15.10;;;;;;;;;;5212549;28;20018;-73
2023/05/07 07:23:00;;;;;;;16.93;15.30;;;;;;;;;;5212252;28;20026;-72
2023/05/07 07:25:31;;;;;;;16.70;14.93;;;;;;;;;;5212484;28;20025;-72
2023/05/07 07:28:02;;;;;;;17.30;15.47;;;;;;;;;;5212243;28;20029;-72
2023/05/07 07:30:33;;;;;;;18.77;16.87;;;;;;;;;;5210856;28;20052;-73
2023/05/07 07:33:05;;;;;;;15.80;14.27;;;;;;;;;;5217988;28;20017;-73
2023/05/07 07:35:36;;;;;;;18.33;13.83;;;;;;;;;;5218320;28;20586;-73
2023/05/07 07:38:07;;;;;;;21.43;15.83;;;;;;;;;;5219337;28;20021;-73
2023/05/07 07:40:38;;;;;;;16.87;15.17;;;;;;;;;;5219056;28;20033;-73
2023/05/07 07:43:09;;;;;;;15.40;13.80;;;;;;;;;;5218773;28;20481;-74
2023/05/07 07:45:41;;;;;;;15.37;13.80;;;;;;;;;;5217369;28;20018;-74
2023/05/07 07:48:12;;;;;;;15.63;14.13;;;;;;;;;;5218133;28;20093;-74
2023/05/07 07:50:44;;;;;;;17.97;14.67;;;;;;;;;;5218037;28;20044;-73
2023/05/07 07:53:15;;;;;;;15.40;13.90;;;;;;;;;;5218902;28;20101;-73
2023/05/07 07:55:46;;;;;;;16.80;14.00;;;;;;;;;;5218434;28;20029;-73
2023/05/07 07:58:17;;;;;;;14.53;13.10;;;;;;;;;;5219412;28;20024;-73
2023/05/07 08:00:48;;;;;;;14.80;13.20;;;;;;;;;;5219509;28;20662;-72
2023/05/07 08:03:20;;;;;;;16.00;12.77;;;;;;;;;;5211867;28;20189;-74
2023/05/07 08:05:51;;;;;;;15.57;14.07;;;;;;;;;;5219703;28;20049;-74
2023/05/07 08:08:22;;;;;;;15.23;12.97;;;;;;;;;;5219615;28;20060;-74
2023/05/07 08:10:53;;;;;;;15.30;13.93;;;;;;;;;;5223725;28;20091;-74
2023/05/07 08:13:25;;;;;;;14.77;13.27;;;;;;;;;;5188214;28;20019;-74
2023/05/07 08:15:56;;;;;;;14.23;12.73;;;;;;;;;;5153592;29;20082;-74
2023/05/07 08:18:28;;;;;;;14.67;12.80;;;;;;;;;;5155077;29;20025;-74
2023/05/07 08:21:00;;;;;;;15.17;12.30;;;;;;;;;;5174871;28;20050;-74
2023/05/07 08:23:31;;;;;;;15.00;12.27;;;;;;;;;;5180051;28;20025;-72
2023/05/07 08:26:02;;;;;;;14.67;12.93;;;;;;;;;;5239533;28;20112;-74
2023/05/07 08:28:34;;;;;;;14.13;12.47;;;;;;;;;;5226673;28;20405;-75
2023/05/07 08:31:05;;;;;;;14.70;13.33;;;;;;;;;;5231478;28;20163;-74
2023/05/07 08:33:38;;;;;;;12.80;11.30;;;;;;;;;;5237980;28;20037;-74
2023/05/07 08:36:09;;;;;;;14.33;12.60;;;;;;;;;;5236920;28;20013;-75
2023/05/07 08:38:42;;;;;;;14.43;11.93;;;;;;;;;;5239134;28;20013;-75
2023/05/07 08:41:13;;;;;;;12.70;11.50;;;;;;;;;;5220463;28;20014;-75
2023/05/07 08:43:47;;;;;;;14.60;11.73;;;;;;;;;;5225208;28;20022;-75
2023/05/07 08:46:21;;;;;;;12.95;11.52;;;;;;;;;;5213513;28;20064;-73
2023/05/07 08:48:52;;;;;;;;;;;;;;;;;;5215785;28;20563;-73
2023/05/07 08:51:23;;;;;;;13.80;12.33;;;;;;;;;;5170798;28;19909;-73
2023/05/07 08:53:55;;;;;;;15.17;13.60;;;;;;;;;;5235129;28;20253;-73
2023/05/07 08:56:26;;;;;;;18.73;13.30;;;;;;;;;;5218304;28;20041;-73
2023/05/07 08:58:58;;;;;;;14.40;12.93;;;;;;;;;;5234788;28;20658;-73
2023/05/07 09:01:29;;;;;;;21.00;14.43;;;;;;;;;;5234497;28;20393;-72
2023/05/07 09:04:01;;;;;;;14.87;13.47;;;;;;;;;;5235592;28;20048;-72
2023/05/07 09:06:34;;;;;;;13.90;12.50;;;;;;;;;;5230333;28;20053;-72
2023/05/07 09:09:06;;;;;;;15.25;13.75;;;;;;;;;;5226039;28;20014;-73
2023/05/07 09:11:37;;;;;;;15.77;14.13;;;;;;;;;;5221741;28;20140;-72
2023/05/07 09:14:08;;;;;;;14.60;13.10;;;;;;;;;;5222074;28;20021;-73
2023/05/07 09:16:39;;;;;;;15.20;13.17;;;;;;;;;;5230587;28;20473;-73
2023/05/07 09:19:11;;;;;;;13.93;12.40;;;;;;;;;;5235566;28;20115;-73
2023/05/07 09:21:45;;;;;;;14.87;13.20;;;;;;;;;;5232027;28;20033;-74
2023/05/07 09:24:16;;;;;;;15.55;13.35;;;;;;;;;;5226852;28;20033;-73
2023/05/07 09:26:47;;;;;;;15.33;12.03;;;;;;;;;;5240824;28;20797;-73
2023/05/07 09:29:18;;;;;;;14.10;12.27;;;;;;;;;;5227872;28;20783;-73
2023/05/07 09:31:50;;;;;;;13.47;12.07;;;;;;;;;;5222861;28;20056;-74
2023/05/07 09:34:21;;;;;;;13.97;12.30;;;;;;;;;;5232897;28;20021;-74
2023/05/07 09:36:53;;;;;;;13.37;11.37;;;;;;;;;;5234533;28;20101;-73
2023/05/07 09:39:25;;;;;;;13.77;12.40;;;;;;;;;;5235076;28;20022;-73
2023/05/07 09:41:58;;;;;;;14.10;12.70;;;;;;;;;;5234155;28;20017;-74
2023/05/07 09:44:30;;;;;;;;;;;;;;;;;;5233562;28;20551;-75
2023/05/07 09:47:04;;;;;;;14.67;13.27;;;;;;;;;;5225745;28;20000;-74
2023/05/07 09:49:36;;;;;;;14.00;12.52;;;;;;;;;;5213904;28;20264;-74
2023/05/07 09:52:09;;;;;;;14.40;13.07;;;;;;;;;;5234871;28;20017;-75
2023/05/07 09:54:42;;;;;;;17.75;15.23;;;;;;;;;;5233703;28;20592;-74
2023/05/07 09:57:14;;;;;;;14.47;13.07;;;;;;;;;;5227371;28;20026;-75
2023/05/07 09:59:45;;;;;;;14.97;13.57;;;;;;;;;;5233182;28;20040;-74
2023/05/07 10:02:17;;;;;;;14.90;13.43;;;;;;;;;;5226127;28;20022;-74
2023/05/07 10:04:49;;;;;;;16.23;14.53;;;;;;;;;;5213190;28;20026;-75
2023/05/07 10:07:20;;;;;;;17.83;14.53;;;;;;;;;;5213623;28;20022;-77
2023/05/07 10:09:52;;;;;;;14.70;13.40;;;;;;;;;;5213468;28;20021;-76
2023/05/07 10:12:23;;;;;;;14.90;13.37;;;;;;;;;;5219765;28;20113;-77
2023/05/07 10:14:55;;;;;;;14.90;13.37;;;;;;;;;;5242409;28;20355;-76
2023/05/07 10:17:27;;;;;;;14.47;12.97;;;;;;;;;;5243682;28;20593;-76
2023/05/07 10:19:58;;;;;;;15.23;12.90;;;;;;;;;;5241825;28;20028;-76
2023/05/07 10:22:32;;;;;;;16.00;12.57;;;;;;;;;;5240660;28;20675;-76
2023/05/07 10:25:06;;;;;;;13.63;11.90;;;;;;;;;;5233437;28;20021;-76
2023/05/07 10:27:37;;;;;;;15.05;12.82;;;;;;;;;;5230076;28;20033;-76
2023/05/07 10:30:15;;;;;;;12.77;11.48;;;;;;;;;;5232927;28;20017;-76
2023/05/07 10:32:49;;;;;;;13.55;12.10;;;;;;;;;;5215083;28;20061;-78
2023/05/07 10:35:21;;;;;;;12.80;11.48;;;;;;;;;;5233700;28;20055;-77
2023/05/07 10:37:53;;;;;;;12.05;10.95;;;;;;;;;;5216024;28;20041;-77
2023/05/07 10:40:24;;;;;;;12.15;10.75;;;;;;;;;;5233335;28;20574;-78
2023/05/07 10:43:02;;;;;;;12.45;11.40;;;;;;;;;;5233113;28;20017;-78
2023/05/07 10:45:33;;;;;;;12.48;11.27;;;;;;;;;;5232000;28;20021;-77
2023/05/07 10:48:10;;;;;;;13.45;11.90;;;;;;;;;;5227136;28;20028;-77
2023/05/07 10:50:47;;;;;;;11.95;10.75;;;;;;;;;;5232306;28;20649;-78
2023/05/07 10:53:19;;;;;;;12.40;11.00;;;;;;;;;;5232387;28;20030;-78
2023/05/07 10:55:51;;;;;;;12.45;10.85;;;;;;;;;;5220222;28;20036;-78
2023/05/07 10:58:22;;;;;;;10.85;9.85;;;;;;;;;;5242132;28;20131;-78
2023/05/07 11:00:57;;;;;;;11.05;9.95;;;;;;;;;;5228930;28;20052;-77
2023/05/07 11:03:28;;;;;;;10.82;9.88;;;;;;;;;;5235329;28;20040;-77
2023/05/07 11:06:10;;;;;;;10.82;9.73;;;;;;;;;;5232706;28;20025;-78
2023/05/07 11:08:57;;;;;;;11.55;10.35;;;;;;;;;;5234512;28;20021;-78
2023/05/07 11:11:55;;;;;;;11.82;9.85;;;;;;;;;;5232262;28;20171;-78
2023/05/07 11:14:42;;;;;;;11.15;10.15;;;;;;;;;;5230486;28;20104;-77
2023/05/07 11:17:13;;;;;;;15.40;9.55;;;;;;;;;;5233311;28;20021;-77
2023/05/07 11:19:51;;;;;;;10.68;9.20;;;;;;;;;;5242247;28;20031;-78
2023/05/07 11:22:41;;;;;;;11.10;9.95;;;;;;;;;;5233951;28;20022;-78
2023/05/07 11:25:17;;;;;;;10.65;8.35;;;;;;;;;;5233152;28;20024;-78
2023/05/07 11:27:48;;;;;;;11.18;10.07;;;;;;;;;;5232887;28;20041;-79
2023/05/07 11:30:19;;;;;;;10.95;9.63;;;;;;;;;;5233295;28;20032;-78
2023/05/07 11:32:51;;;;;;;10.95;8.13;;;;;;;;;;5241070;28;20009;-78
2023/05/07 11:35:22;;;;;;;8.80;7.90;;;;;;;;;;5241584;28;20017;-78
2023/05/07 11:37:59;;;;;;;11.80;7.78;;;;;;;;;;5233029;28;20084;-78
2023/05/07 11:40:30;;;;;;;6.78;6.07;;;;;;;;;;5232655;28;20025;-77
2023/05/07 11:43:10;;;;;;;8.80;7.90;;;;;;;;;;5240262;28;20665;-77
2023/05/07 11:45:41;;;;;;;8.85;7.75;;;;;;;;;;5226646;28;20096;-77
2023/05/07 11:48:13;;;;;;;9.45;8.40;;;;;;;;;;5239140;28;20584;-77
2023/05/07 11:51:13;;;;;;;10.02;6.93;;;;;;;;;;5230821;28;20096;-77
2023/05/07 11:53:44;;;;;;;8.45;7.60;;;;;;;;;;5218501;28;20692;-77
2023/05/07 11:56:17;;;;;;;9.27;7.28;;;;;;;;;;5233644;28;20009;-77
2023/05/07 11:58:48;;;;;;;8.18;6.93;;;;;;;;;;5245043;28;20095;-78
2023/05/07 12:01:19;;;;;;;8.73;7.18;;;;;;;;;;5239641;28;20063;-76
2023/05/07 12:03:50;;;;;;;8.45;6.95;;;;;;;;;;5245189;28;20025;-77
2023/05/07 12:06:22;;;;;;;9.65;6.68;;;;;;;;;;5237957;28;20040;-76
2023/05/07 12:08:53;;;;;;;10.57;6.60;;;;;;;;;;5231875;28;20068;-76
2023/05/07 12:11:25;;;;;;;8.07;6.95;;;;;;;;;;5233150;28;20049;-76
2023/05/07 12:13:56;;;;;;;8.45;6.40;;;;;;;;;;5231430;28;20022;-76
2023/05/07 12:16:27;;;;;;;6.97;6.28;;;;;;;;;;5211115;28;20021;-76
2023/05/07 12:18:58;;;;;;;9.52;6.22;;;;;;;;;;5179532;28;20048;-76
2023/05/07 12:21:30;;;;;;;10.73;6.88;;;;;;;;;;5184737;28;20049;-76
2023/05/07 12:24:01;;;;;;;11.20;5.93;;;;;;;;;;5216130;28;20007;-76
2023/05/07 12:26:37;;;;;;;8.27;6.05;;;;;;;;;;5224524;28;20032;-76
2023/05/07 12:29:08;;;;;;;9.52;6.63;;;;;;;;;;5216720;28;21094;-76
2023/05/07 12:31:43;;;;;;;7.45;5.45;;;;;;;;;;5207425;28;20037;-76
2023/05/07 12:34:15;;;;;;;6.57;1.83;;;;;;;;;;5215091;28;20131;-74
2023/05/07 12:36:47;;;;;;;5.38;2.58;;;;;;;;;;5207368;28;20216;-74
2023/05/07 12:39:18;;;;;;;3.55;1.95;;;;;;;;;;5209031;28;20036;-74
2023/05/07 12:41:54;;;;;;;3.25;1.70;;;;;;;;;;5215787;28;20021;-74
2023/05/07 12:44:28;;;;;;;6.10;2.53;;;;;;;;;;5212255;28;20029;-75
2023/05/07 12:47:05;;;;;;;7.15;2.67;;;;;;;;;;5214075;28;20100;-76
2023/05/07 12:49:38;;;;;;;35.28;7.75;;;;;;;;;;5167042;28;20072;-76
2023/05/07 12:52:10;;;;;;;22.20;5.82;;;;;;;;;;5212421;28;20029;-77
2023/05/07 12:54:44;;;;;;;17.53;5.23;;;;;;;;;;5208456;28;20066;-77
2023/05/07 13:10:22;;;;;;;5.97;4.13;;;;;;;19.55;100.00;101650.81;5316929;27;1201390;-79
2023/05/07 13:12:53;;;;;;;7.93;4.63;;;;;;;19.78;100.00;101682.53;5316356;27;20066;-76
2023/05/07 13:15:26;;;;;;;8.00;5.47;;;;;;;19.79;100.00;101682.41;5312682;27;20380;-78
2023/05/07 13:17:58;;;;;;;11.13;7.57;;;;;;;19.92;100.00;101690.19;5332936;27;20397;-76
2023/05/07 13:20:29;;;;;;;10.57;8.77;;;;;;;20.22;100.00;101689.47;5337140;27;20031;-76
2023/05/07 13:23:01;;;;;;;9.73;7.20;;;;;;;20.05;100.00;101695.31;5330780;27;20027;-74
2023/05/07 13:25:33;;;;;;;12.67;8.10;;;;;;;20.00;100.00;101694.81;5340201;27;20031;-74
2023/05/07 13:28:04;;;;;;;11.63;6.80;;;;;;;19.92;100.00;101689.31;5329793;27;20022;-75
2023/05/07 13:30:36;;;;;;;8.07;7.27;;;;;;;20.18;100.00;101694.22;5332995;27;20079;-76
2023/05/07 13:33:07;;;;;;;9.40;7.93;;;;;;;20.30;100.00;101685.16;5336295;27;20858;-77
2023/05/07 13:35:39;;;;;;;9.97;7.23;;;;;;;20.11;100.00;101679.81;5333082;27;20043;-74
2023/05/07 13:38:10;;;;;;;8.03;7.00;;;;;;;19.92;100.00;101684.88;5314079;27;20123;-73
2023/05/07 13:40:41;;;;;;;8.50;6.67;;;;;;;19.77;100.00;101680.88;5329598;27;20037;-75
2023/05/07 13:43:13;;;;;;;7.20;6.00;;;;;;;19.99;100.00;101687.81;5336410;27;20038;-77
2023/05/07 13:45:44;;;;;;;8.93;5.10;;;;;;;20.02;100.00;101682.22;5317930;27;20050;-76
2023/05/07 13:48:15;;;;;;;6.57;4.80;;;;;;;20.14;100.00;101682.19;5330663;27;20447;-77
2023/05/07 13:50:47;;;;;;;6.80;5.57;;;;;;;20.36;100.00;101669.63;5333385;27;20053;-79
2023/05/07 13:53:18;;;;;;;9.47;5.10;;;;;;;20.07;100.00;101672.06;5335728;27;20023;-75
2023/05/07 13:55:49;;;;;;;7.80;5.57;;;;;;;20.51;100.00;101673.56;5336684;27;20070;-76
2023/05/07 13:58:20;;;;;;;7.20;6.37;;;;;;;20.65;100.00;101685.63;5328990;27;20042;-74
2023/05/07 14:00:52;;;;;;;9.10;5.90;;;;;;;20.79;100.00;101679.06;5326882;27;20051;-74
2023/05/07 14:03:23;;;;;;;7.90;6.60;;;;;;;20.92;100.00;101676.16;5326327;27;20035;-75
2023/05/07 14:05:55;;;;;;;8.17;7.17;;;;;;;21.07;100.00;101674.91;5315770;27;20074;-75
2023/05/07 14:08:27;;;;;;;12.27;7.80;;;;;;;20.94;100.00;101665.38;5328385;27;20040;-81
2023/05/07 14:10:58;;;;;;;8.10;7.30;;;;;;;20.82;100.00;101680.63;5300952;28;20052;-76
2023/05/07 14:13:30;;;;;;;8.40;6.60;;;;;;;21.26;100.00;101680.19;5298313;27;20023;-72
2023/05/07 14:16:04;;;;;;;8.93;8.03;;;;;;;21.25;100.00;101678.53;5313592;27;20054;-73
2023/05/07 14:18:36;;;;;;;10.90;9.63;;;;;;;20.93;100.00;101671.63;5321035;27;20042;-75
2023/05/07 14:21:09;;;;;;;11.83;9.37;;;;;;;21.11;100.00;101677.13;5316727;27;20047;-76
2023/05/07 14:23:40;;;;;;;9.67;8.77;;;;;;;21.02;100.00;101670.84;5318739;27;20035;-80
2023/05/07 14:26:12;;;;;;;10.20;9.30;;;;;;;21.07;100.00;101672.25;5316677;27;20028;-80
2023/05/07 14:28:46;;;;;;;10.43;9.43;;;;;;;20.92;100.00;101680.63;5290628;27;20040;-79
2023/05/07 14:31:17;;;;;;;8.68;7.88;;;;;;;20.75;100.00;101684.81;5317757;27;20426;-80
2023/05/07 14:33:49;;;;;;;9.53;8.53;;;;;;;20.68;100.00;101679.22;5299317;27;20047;-79
2023/05/07 14:36:22;;;;;;;10.87;9.87;;;;;;;20.78;100.00;101685.38;5315269;27;20104;-72
2023/05/07 14:38:54;;;;;;;10.07;9.17;;;;;;;20.99;100.00;101687.09;5312225;27;20027;-71